Time;durP1;ratioP1;P1;durP2;ratioP2;P2;SDS_P1;SDS_P2;PMS_P1;PMS_P2;Temp;Humidity;BMP_temperature;BMP_pressure;BME280_temperature;BME280_humidity;BME280_pressure;Samples;Min_cycle;Max_cycle;Signal;HPM_P1;HPM_P2
2021/04/08 00:00:25;;;;;;;5.17;2.77;;;4.40;73.70;;;;;;1701627;84;21160;-74
2021/04/08 00:02:54;;;;;;;7.50;2.92;;;4.40;74.00;;;;;;1743368;82;21115;-72
2021/04/08 00:05:23;;;;;;;6.20;2.92;;;4.50;73.40;;;;;;1743592;82;21596;-75
2021/04/08 00:07:50;;;;;;;4.53;2.55;;;4.60;72.90;;;;;;1743530;82;21181;-75
2021/04/08 00:10:18;;;;;;;7.12;2.90;;;4.50;73.10;;;;;;1743245;82;21205;-74
2021/04/08 00:12:46;;;;;;;5.75;2.92;;;4.50;73.50;;;;;;1743412;82;21185;-74
2021/04/08 00:15:15;;;;;;;7.05;3.10;;;4.50;73.40;;;;;;1743536;82;21165;-75
2021/04/08 00:17:43;;;;;;;5.65;2.83;;;4.40;74.00;;;;;;1743378;82;21184;-75
2021/04/08 00:20:20;;;;;;;8.48;2.58;;;4.50;74.20;;;;;;1743459;82;21142;-74
2021/04/08 00:22:48;;;;;;;5.80;2.70;;;4.40;73.90;;;;;;1743708;82;21162;-75
2021/04/08 00:25:16;;;;;;;4.70;2.60;;;4.40;74.10;;;;;;1743541;82;21153;-74
2021/04/08 00:27:44;;;;;;;6.20;2.67;;;4.40;72.80;;;;;;1743579;82;21604;-74
2021/04/08 00:30:14;;;;;;;4.65;2.83;;;4.40;73.30;;;;;;1743842;82;21600;-74
2021/04/08 00:32:42;;;;;;;5.25;2.80;;;4.30;73.20;;;;;;1743824;82;21597;-76
2021/04/08 00:35:10;;;;;;;6.25;2.45;;;4.30;73.50;;;;;;1744006;82;21569;-76
2021/04/08 00:37:38;;;;;;;6.17;2.72;;;4.30;73.30;;;;;;1743482;82;21237;-75
2021/04/08 00:40:10;;;;;;;5.85;2.60;;;4.30;73.40;;;;;;1743922;82;21174;-75
2021/04/08 00:42:41;;;;;;;5.28;2.58;;;4.20;73.80;;;;;;1743360;82;21154;-75
2021/04/08 00:45:10;;;;;;;5.55;3.05;;;4.20;74.30;;;;;;1742840;82;21141;-74
2021/04/08 00:47:38;;;;;;;8.78;3.15;;;4.10;74.50;;;;;;1743550;82;21170;-73
2021/04/08 00:50:08;;;;;;;5.87;2.80;;;4.00;74.80;;;;;;1743702;82;21147;-72
2021/04/08 00:52:38;;;;;;;4.65;2.58;;;3.90;74.70;;;;;;1743605;82;21573;-73
2021/04/08 00:55:07;;;;;;;4.00;2.45;;;3.80;74.90;;;;;;1743608;82;21177;-73
2021/04/08 00:57:35;;;;;;;3.65;2.30;;;3.60;75.10;;;;;;1743499;82;21173;-73
2021/04/08 01:00:06;;;;;;;4.87;2.35;;;3.50;74.90;;;;;;1743629;82;21122;-73
2021/04/08 01:02:34;;;;;;;5.12;2.65;;;3.40;75.80;;;;;;1743910;82;21143;-73
2021/04/08 01:05:03;;;;;;;3.85;2.37;;;3.50;76.60;;;;;;1743526;82;21142;-74
2021/04/08 01:07:33;;;;;;;5.00;2.50;;;3.50;76.00;;;;;;1743490;82;21142;-74
2021/04/08 01:10:01;;;;;;;4.20;2.30;;;3.50;76.50;;;;;;1743688;82;21185;-75
2021/04/08 01:12:29;;;;;;;3.62;2.17;;;3.40;76.50;;;;;;1715028;82;21165;-72
2021/04/08 01:14:57;;;;;;;5.30;2.33;;;3.20;76.80;;;;;;1743542;82;21165;-75
2021/04/08 01:17:48;;;;;;;5.37;2.37;;;3.10;77.50;;;;;;1743528;82;21186;-75
2021/04/08 01:20:39;;;;;;;5.08;2.52;;;3.10;77.40;;;;;;1699194;84;21177;-75
2021/04/08 01:24:03;;;;;;;5.60;2.60;;;3.10;77.40;;;;;;1743924;82;21111;-75
2021/04/08 01:27:15;;;;;;;4.92;2.20;;;3.10;76.70;;;;;;1743549;82;21565;-75
2021/04/08 01:30:39;;;;;;;4.15;2.47;;;3.20;77.10;;;;;;1743015;82;21178;-75
2021/04/08 01:33:12;;;;;;;3.98;2.10;;;3.10;76.90;;;;;;1743692;82;21549;-75
2021/04/08 01:35:42;;;;;;;4.25;2.02;;;3.10;76.90;;;;;;1743557;82;21573;-75
2021/04/08 01:38:33;;;;;;;2.92;1.80;;;3.00;77.00;;;;;;1743485;82;21573;-77
2021/04/08 01:41:02;;;;;;;4.58;2.30;;;3.00;77.70;;;;;;1743506;82;21141;-77
2021/04/08 01:43:35;;;;;;;3.67;2.10;;;2.90;77.50;;;;;;1743685;82;21580;-77
2021/04/08 01:46:05;;;;;;;4.08;2.17;;;2.90;77.60;;;;;;1743666;82;21162;-76
2021/04/08 01:48:35;;;;;;;4.60;2.35;;;2.80;78.30;;;;;;1743591;82;21580;-73
2021/04/08 01:51:07;;;;;;;4.55;3.00;;;2.90;78.80;;;;;;1743486;82;21190;-75
2021/04/08 01:53:40;;;;;;;6.03;2.47;;;2.90;78.60;;;;;;1743488;82;21153;-75
2021/04/08 01:56:12;;;;;;;8.03;2.72;;;2.90;78.70;;;;;;1743673;82;21580;-74
2021/04/08 01:58:42;;;;;;;5.17;2.52;;;2.90;78.70;;;;;;1743543;82;21589;-74
2021/04/08 02:01:10;;;;;;;6.53;2.83;;;2.80;78.10;;;;;;1743340;82;21153;-74
2021/04/08 02:03:40;;;;;;;8.05;3.37;;;2.70;78.00;;;;;;1743735;82;21564;-74
2021/04/08 02:06:11;;;;;;;7.67;4.17;;;2.70;78.70;;;;;;1743322;82;21647;-74
2021/04/08 02:08:43;;;;;;;9.08;4.53;;;2.80;79.90;;;;;;1743560;82;21170;-74
2021/04/08 02:11:12;;;;;;;6.25;3.17;;;2.80;79.30;;;;;;1743561;82;21161;-75
2021/04/08 02:13:47;;;;;;;7.65;3.30;;;2.90;79.00;;;;;;1743820;82;21158;-75
2021/04/08 02:16:19;;;;;;;6.90;2.98;;;2.80;78.30;;;;;;1743460;82;21161;-75
2021/04/08 02:18:54;;;;;;;9.45;4.70;;;2.80;78.90;;;;;;1743768;82;21142;-75
2021/04/08 02:21:25;;;;;;;6.10;3.62;;;2.80;78.70;;;;;;1743631;82;21149;-75
2021/04/08 02:23:53;;;;;;;7.95;3.92;;;2.80;79.60;;;;;;1743585;82;21169;-74
2021/04/08 02:26:22;;;;;;;8.08;3.67;;;2.80;79.00;;;;;;1743275;82;21612;-74
2021/04/08 02:28:51;;;;;;;7.10;3.98;;;2.60;79.30;;;;;;1743430;82;21611;-74
2021/04/08 02:31:20;;;;;;;7.97;3.98;;;2.50;79.90;;;;;;1743539;82;21604;-74
2021/04/08 02:33:48;;;;;;;9.05;4.33;;;2.50;80.50;;;;;;1743591;82;21162;-74
2021/04/08 02:36:16;;;;;;;8.98;4.40;;;2.50;80.90;;;;;;1743622;82;21620;-74
2021/04/08 02:38:44;;;;;;;8.43;4.10;;;2.60;81.70;;;;;;1743462;82;21169;-74
2021/04/08 02:41:12;;;;;;;9.50;4.60;;;2.80;80.40;;;;;;1744107;82;21600;-75
2021/04/08 02:43:40;;;;;;;7.87;4.35;;;2.80;80.20;;;;;;1743583;82;21170;-74
2021/04/08 02:46:08;;;;;;;7.22;4.05;;;2.70;80.30;;;;;;1743468;82;21616;-74
2021/04/08 02:48:36;;;;;;;9.65;4.20;;;2.70;80.50;;;;;;1743611;82;21611;-75
2021/04/08 02:51:15;;;;;;;5.80;3.60;;;2.70;80.70;;;;;;1743919;82;21173;-74
2021/04/08 02:54:07;;;;;;;7.50;3.37;;;2.70;79.90;;;;;;1713486;84;21157;-74
2021/04/08 02:56:54;;;;;;;6.22;2.85;;;2.50;78.70;;;;;;1713588;83;21118;-74
2021/04/08 02:59:27;;;;;;;;;;;2.30;78.40;;;;;;1704090;84;21172;-73
2021/04/08 03:02:06;;;;;;;5.67;3.17;;;2.20;79.00;;;;;;1743480;82;20178;-73
2021/04/08 03:04:42;;;;;;;4.85;2.90;;;2.30;79.30;;;;;;1743415;82;21149;-73
2021/04/08 03:07:12;;;;;;;5.30;2.75;;;2.30;79.60;;;;;;1743476;82;21139;-73
2021/04/08 03:09:41;;;;;;;5.17;2.95;;;2.20;78.50;;;;;;1744320;82;21182;-73
2021/04/08 03:12:14;;;;;;;5.87;2.65;;;2.20;78.90;;;;;;1749251;82;21181;-73
2021/04/08 03:14:50;;;;;;;5.47;2.65;;;2.20;78.10;;;;;;1749345;82;21134;-72
2021/04/08 03:17:29;;;;;;;5.65;2.45;;;2.10;77.40;;;;;;1749397;82;21141;-71
2021/04/08 03:20:06;;;;;;;4.53;2.65;;;2.20;76.60;;;;;;1749235;81;21580;-73
2021/04/08 03:22:38;;;;;;;5.12;2.50;;;2.20;77.00;;;;;;1749652;81;21170;-73
2021/04/08 03:25:09;;;;;;;6.10;2.52;;;2.20;77.60;;;;;;1749246;81;21141;-74
2021/04/08 03:27:40;;;;;;;6.03;2.98;;;2.40;77.70;;;;;;1749211;82;21189;-74
2021/04/08 03:30:13;;;;;;;6.45;3.10;;;2.40;77.50;;;;;;1749428;81;21145;-73
2021/04/08 03:32:42;;;;;;;5.85;3.35;;;2.50;77.50;;;;;;1749254;82;21162;-74
2021/04/08 03:35:12;;;;;;;8.00;3.60;;;2.50;78.20;;;;;;1749396;81;21130;-75
2021/04/08 03:37:41;;;;;;;6.03;3.25;;;2.60;76.80;;;;;;1749716;82;21150;-75
2021/04/08 03:40:11;;;;;;;6.78;3.72;;;2.50;76.80;;;;;;1749647;82;21166;-74
2021/04/08 03:42:40;;;;;;;7.87;3.50;;;2.50;76.30;;;;;;1749173;82;21185;-75
2021/04/08 03:45:11;;;;;;;5.00;2.87;;;2.50;76.80;;;;;;1749208;82;21122;-75
2021/04/08 03:47:43;;;;;;;6.08;2.98;;;2.50;75.70;;;;;;1749321;82;21561;-75
2021/04/08 03:50:14;;;;;;;6.60;3.20;;;2.40;75.30;;;;;;1749348;81;21122;-75
2021/04/08 03:52:44;;;;;;;10.03;4.25;;;2.50;75.40;;;;;;1749381;81;21150;-76
2021/04/08 03:55:13;;;;;;;6.22;2.70;;;2.50;74.10;;;;;;1749546;82;21600;-76
2021/04/08 03:57:44;;;;;;;6.08;3.00;;;2.40;74.70;;;;;;1749577;82;21122;-75
2021/04/08 04:00:15;;;;;;;8.63;3.60;;;2.50;74.00;;;;;;1749708;82;21174;-76
2021/04/08 04:02:44;;;;;;;8.20;4.10;;;2.60;73.40;;;;;;1749370;81;21122;-77
2021/04/08 04:05:13;;;;;;;8.55;4.33;;;2.60;74.00;;;;;;1749567;82;21605;-76
2021/04/08 04:07:49;;;;;;;8.90;4.78;;;2.60;74.90;;;;;;1749439;82;21628;-76
2021/04/08 04:10:12;;;;;;;9.63;4.95;;;2.70;75.20;;;;;;1749172;82;21169;-76
2021/04/08 04:12:41;;;;;;;10.55;4.85;;;2.70;75.40;;;;;;1749637;82;21158;-76
2021/04/08 04:15:10;;;;;;;11.65;5.12;;;2.70;75.50;;;;;;1749367;82;21141;-75
2021/04/08 04:17:38;;;;;;;9.95;5.45;;;2.70;75.50;;;;;;1749489;82;21161;-75
2021/04/08 04:20:08;;;;;;;12.60;5.60;;;2.70;74.60;;;;;;1749605;81;21145;-75
2021/04/08 04:22:39;;;;;;;11.30;5.60;;;2.60;74.60;;;;;;1749483;81;21166;-76
2021/04/08 04:25:10;;;;;;;11.38;6.08;;;2.70;74.60;;;;;;1749461;82;21130;-74
2021/04/08 04:27:39;;;;;;;11.90;5.97;;;2.60;74.30;;;;;;1749489;82;21174;-74
2021/04/08 04:30:10;;;;;;;13.32;5.92;;;2.60;74.90;;;;;;1749349;81;21149;-74
2021/04/08 04:32:38;;;;;;;10.50;5.90;;;2.50;74.90;;;;;;1749350;82;21137;-75
2021/04/08 04:35:08;;;;;;;11.35;5.47;;;2.50;75.20;;;;;;1749837;82;21173;-74
2021/04/08 04:37:36;;;;;;;11.25;6.25;;;2.60;75.30;;;;;;1749334;82;21161;-75
2021/04/08 04:40:06;;;;;;;10.88;4.62;;;2.50;74.60;;;;;;1749400;81;21608;-75
2021/04/08 04:42:34;;;;;;;8.73;5.00;;;2.50;73.70;;;;;;1749345;82;21130;-74
2021/04/08 04:45:05;;;;;;;10.08;4.92;;;2.40;74.30;;;;;;1749533;82;21830;-75
2021/04/08 04:47:33;;;;;;;14.33;5.17;;;2.50;74.60;;;;;;1749330;82;21165;-75
2021/04/08 04:50:01;;;;;;;10.30;5.65;;;2.50;74.60;;;;;;1749302;81;21588;-75
2021/04/08 04:52:28;;;;;;;11.05;5.92;;;2.50;74.20;;;;;;1749340;82;21177;-75
2021/04/08 04:54:56;;;;;;;11.12;5.80;;;2.60;73.90;;;;;;1749589;82;21154;-74
2021/04/08 04:57:24;;;;;;;14.15;6.12;;;2.70;73.50;;;;;;1749276;82;21134;-75
2021/04/08 04:59:51;;;;;;;11.45;5.70;;;2.70;72.60;;;;;;1749316;81;21153;-73
2021/04/08 05:02:19;;;;;;;12.80;6.12;;;2.80;72.70;;;;;;1749356;81;21185;-74
2021/04/08 05:04:47;;;;;;;12.88;5.62;;;2.80;72.50;;;;;;1749393;81;21126;-75
2021/04/08 05:07:14;;;;;;;14.00;6.17;;;2.90;71.60;;;;;;1749559;82;21174;-75
2021/04/08 05:09:42;;;;;;;10.45;5.95;;;3.00;71.00;;;;;;1749407;82;21146;-74
2021/04/08 05:12:10;;;;;;;15.83;5.90;;;2.80;70.60;;;;;;1749259;81;21205;-74
2021/04/08 05:14:38;;;;;;;15.43;6.65;;;2.70;70.50;;;;;;1749580;81;21149;-74
2021/04/08 05:17:06;;;;;;;12.65;5.87;;;2.60;71.80;;;;;;1749465;82;21158;-75
2021/04/08 05:19:34;;;;;;;12.10;6.15;;;2.40;71.90;;;;;;1749143;82;21126;-75
2021/04/08 05:22:02;;;;;;;16.70;7.05;;;2.30;73.80;;;;;;1749302;81;21165;-75
2021/04/08 05:24:31;;;;;;;13.78;6.90;;;2.40;73.20;;;;;;1749404;82;21584;-76
2021/04/08 05:27:00;;;;;;;30.90;12.20;;;2.50;72.30;;;;;;1749454;82;21580;-75
2021/04/08 05:29:27;;;;;;;12.90;6.50;;;2.50;72.40;;;;;;1719748;83;21596;-76
2021/04/08 05:31:55;;;;;;;13.65;7.40;;;2.50;71.90;;;;;;1749481;82;21157;-76
2021/04/08 05:34:23;;;;;;;18.98;7.47;;;2.70;71.40;;;;;;1749851;82;21226;-75
2021/04/08 05:36:50;;;;;;;18.73;6.60;;;2.80;70.60;;;;;;1749314;81;21600;-76
2021/04/08 05:39:18;;;;;;;13.25;6.17;;;2.80;70.50;;;;;;1749904;80;21591;-74
2021/04/08 05:41:46;;;;;;;14.60;6.12;;;2.80;70.30;;;;;;1760926;80;21141;-74
2021/04/08 05:44:14;;;;;;;13.80;6.47;;;2.90;69.90;;;;;;1755045;80;21188;-74
2021/04/08 05:46:41;;;;;;;16.05;6.55;;;2.90;69.20;;;;;;1756771;81;21174;-74
2021/04/08 05:49:09;;;;;;;13.93;6.75;;;3.10;68.90;;;;;;1758745;81;21160;-73
2021/04/08 05:51:37;;;;;;;12.98;6.30;;;3.20;69.20;;;;;;1764455;81;21157;-73
2021/04/08 05:54:07;;;;;;;18.40;7.67;;;3.30;68.20;;;;;;1765434;81;21149;-73
2021/04/08 05:56:35;;;;;;;12.63;6.10;;;3.30;68.00;;;;;;1759406;81;21149;-73
2021/04/08 05:59:03;;;;;;;12.37;6.35;;;3.20;67.70;;;;;;1764237;81;21588;-74
2021/04/08 06:01:31;;;;;;;13.80;6.30;;;3.20;67.90;;;;;;1762809;80;21153;-74
2021/04/08 06:03:58;;;;;;;12.98;6.55;;;3.30;67.50;;;;;;1764799;80;21128;-74
2021/04/08 06:06:26;;;;;;;14.00;6.33;;;3.40;67.00;;;;;;1768463;80;21137;-71
2021/04/08 06:08:53;;;;;;;15.53;6.60;;;3.50;67.20;;;;;;1755153;80;21582;-74
2021/04/08 06:11:21;;;;;;;13.98;5.67;;;3.60;66.50;;;;;;1755821;81;21145;-73
2021/04/08 06:13:50;;;;;;;14.25;5.70;;;3.70;66.10;;;;;;1789619;80;21263;-72
2021/04/08 06:16:17;;;;;;;15.20;6.03;;;3.70;65.10;;;;;;1797415;79;21105;-72
2021/04/08 06:18:47;;;;;;;8.60;4.90;;;3.70;65.40;;;;;;1793800;79;21124;-71
2021/04/08 06:21:14;;;;;;;8.55;5.15;;;3.70;65.60;;;;;;1797609;79;21130;-72
2021/04/08 06:23:43;;;;;;;8.88;5.30;;;3.70;64.60;;;;;;1786936;80;21167;-75
2021/04/08 06:26:11;;;;;;;10.85;5.12;;;3.70;64.60;;;;;;1787001;80;21200;-72
2021/04/08 06:28:39;;;;;;;10.53;4.83;;;3.90;63.80;;;;;;1785673;79;21140;-74
2021/04/08 06:31:07;;;;;;;8.15;4.05;;;4.00;63.80;;;;;;1793486;79;21532;-74
2021/04/08 06:33:35;;;;;;;8.03;4.33;;;4.00;61.40;;;;;;1793125;79;21125;-74
2021/04/08 06:36:08;;;;;;;9.38;4.20;;;4.10;60.80;;;;;;1789408;80;21165;-73
2021/04/08 06:38:37;;;;;;;8.58;3.85;;;4.10;59.30;;;;;;1792967;79;21113;-75
2021/04/08 06:41:05;;;;;;;8.88;4.45;;;4.20;58.30;;;;;;1792553;79;21145;-75
2021/04/08 06:43:36;;;;;;;9.30;4.45;;;4.30;58.90;;;;;;1792244;80;21276;-75
2021/04/08 06:46:06;;;;;;;6.20;3.95;;;4.40;58.80;;;;;;1790621;80;21124;-71
2021/04/08 06:48:58;;;;;;;6.53;3.58;;;4.60;57.60;;;;;;1793801;79;21160;-73
2021/04/08 06:51:32;;;;;;;7.28;3.37;;;4.70;57.00;;;;;;1793051;79;21153;-72
2021/04/08 06:54:01;;;;;;;10.35;4.20;;;4.80;56.20;;;;;;1812365;79;21552;-73
2021/04/08 06:56:31;;;;;;;7.65;3.37;;;4.80;54.90;;;;;;1807526;79;21501;-72
2021/04/08 06:58:59;;;;;;;6.37;3.25;;;4.80;54.30;;;;;;1789291;80;21698;-73
2021/04/08 07:01:29;;;;;;;6.72;3.50;;;4.90;54.20;;;;;;1792679;79;21124;-71
2021/04/08 07:03:59;;;;;;;5.83;3.40;;;5.00;54.20;;;;;;1796861;79;21149;-72
2021/04/08 07:06:26;;;;;;;10.28;3.65;;;5.10;53.70;;;;;;1798275;79;21153;-72
2021/04/08 07:08:57;;;;;;;9.60;4.05;;;5.30;52.90;;;;;;1797117;79;21142;-73
2021/04/08 07:11:26;;;;;;;8.18;3.90;;;5.30;52.70;;;;;;1796557;79;21144;-70
2021/04/08 07:13:54;;;;;;;7.72;3.22;;;5.40;52.20;;;;;;1793312;79;21137;-73
2021/04/08 07:16:23;;;;;;;6.17;2.65;;;5.40;50.90;;;;;;1789570;80;21714;-72
2021/04/08 07:18:53;;;;;;;7.05;3.30;;;5.50;49.70;;;;;;1789829;79;21165;-72
2021/04/08 07:21:22;;;;;;;6.05;2.72;;;5.50;49.40;;;;;;1798727;79;21115;-71
2021/04/08 07:24:19;;;;;;;4.83;2.40;;;5.60;50.20;;;;;;1793522;79;21129;-72
2021/04/08 07:26:58;;;;;;;5.20;2.50;;;5.70;50.80;;;;;;1797521;79;21098;-74
2021/04/08 07:29:52;;;;;;;5.67;3.05;;;5.90;49.30;;;;;;1787477;80;21489;-71
2021/04/08 07:32:31;;;;;;;4.65;2.83;;;6.00;49.20;;;;;;1792159;79;21603;-73
2021/04/08 07:35:19;;;;;;;4.78;2.83;;;6.00;49.40;;;;;;1797169;79;21125;-71
2021/04/08 07:37:59;;;;;;;4.85;2.22;;;6.10;49.00;;;;;;1793492;79;21156;-73
2021/04/08 07:40:28;;;;;;;5.12;2.60;;;6.30;48.50;;;;;;1793123;79;21152;-74
2021/04/08 07:42:56;;;;;;;5.25;2.72;;;6.40;47.50;;;;;;1794721;79;21133;-71
2021/04/08 07:45:33;;;;;;;5.17;2.62;;;6.80;47.00;;;;;;1794849;78;21571;-72
2021/04/08 07:48:05;;;;;;;4.50;2.80;;;7.20;46.30;;;;;;1794730;79;21120;-75
2021/04/08 07:50:37;;;;;;;4.83;2.27;;;7.50;45.50;;;;;;1793791;79;21165;-74
2021/04/08 07:53:06;;;;;;;4.58;2.30;;;7.90;44.90;;;;;;1795569;79;21121;-73
2021/04/08 07:55:37;;;;;;;5.70;2.83;;;8.10;43.50;;;;;;1819130;79;21126;-76
2021/04/08 07:58:09;;;;;;;6.28;2.95;;;8.40;43.70;;;;;;1819460;78;21263;-77
2021/04/08 08:00:50;;;;;;;5.72;2.40;;;8.60;43.70;;;;;;1819044;79;21607;-77
2021/04/08 08:03:26;;;;;;;4.83;2.62;;;9.00;43.90;;;;;;1817690;79;21504;-77
2021/04/08 08:05:58;;;;;;;4.80;3.03;;;9.30;41.70;;;;;;1819274;79;21138;-78
2021/04/08 08:08:44;;;;;;;6.33;2.90;;;9.50;41.70;;;;;;1799195;78;21799;-73
2021/04/08 08:11:15;;;;;;;;;;;9.90;41.00;;;;;;1791322;80;21153;-72
2021/04/08 08:13:52;;;;;;;5.28;2.90;;;10.70;40.10;;;;;;1796203;80;20479;-78
2021/04/08 08:16:23;;;;;;;5.33;2.40;;;11.40;38.30;;;;;;1796400;80;21689;-79
2021/04/08 08:18:52;;;;;;;3.47;2.05;;;12.10;35.50;;;;;;1796246;79;21136;-76
2021/04/08 08:21:35;;;;;;;3.70;2.25;;;12.00;33.60;;;;;;1796048;80;21607;-73
2021/04/08 08:24:02;;;;;;;5.60;2.15;;;11.90;34.50;;;;;;1796303;79;21109;-75
2021/04/08 08:26:43;;;;;;;2.85;1.60;;;12.00;34.10;;;;;;1796272;79;21132;-75
2021/04/08 08:29:16;;;;;;;4.90;1.70;;;12.00;32.30;;;;;;1796256;80;21117;-77
2021/04/08 08:31:52;;;;;;;3.25;1.70;;;12.80;32.20;;;;;;1796196;79;21132;-75
2021/04/08 08:34:27;;;;;;;3.00;1.70;;;13.30;31.20;;;;;;1796268;80;21552;-78
2021/04/08 08:37:10;;;;;;;3.42;1.90;;;13.30;30.90;;;;;;1796442;80;21291;-76
2021/04/08 08:39:49;;;;;;;3.87;1.60;;;13.30;30.50;;;;;;1796246;80;21137;-77
2021/04/08 08:42:20;;;;;;;3.40;1.80;;;13.70;30.10;;;;;;1796296;80;21161;-75
2021/04/08 08:44:49;;;;;;;3.75;1.80;;;13.40;29.90;;;;;;1800432;78;21121;-71
2021/04/08 08:47:25;;;;;;;4.42;2.27;;;13.10;31.20;;;;;;1804661;78;21137;-71
2021/04/08 08:50:03;;;;;;;4.28;1.90;;;13.00;31.30;;;;;;1800250;78;21136;-75
2021/04/08 08:52:37;;;;;;;3.25;1.80;;;12.80;32.50;;;;;;1807007;78;21130;-77
2021/04/08 08:55:11;;;;;;;3.08;1.60;;;12.60;32.30;;;;;;1807337;78;21281;-72
2021/04/08 08:57:40;;;;;;;3.87;1.80;;;12.60;31.50;;;;;;1796887;78;21136;-72
2021/04/08 09:00:10;;;;;;;4.08;1.92;;;12.70;31.60;;;;;;1803941;78;21535;-70
2021/04/08 09:02:39;;;;;;;4.47;1.60;;;12.40;31.80;;;;;;1800588;78;21124;-72
2021/04/08 09:05:19;;;;;;;4.47;1.67;;;12.10;31.70;;;;;;1795900;79;21145;-72
2021/04/08 09:07:51;;;;;;;3.02;1.77;;;11.70;31.70;;;;;;1804986;78;21179;-71
2021/04/08 09:10:34;;;;;;;3.62;1.67;;;11.60;30.90;;;;;;1798296;78;21097;-74
2021/04/08 09:13:02;;;;;;;3.05;1.60;;;11.60;30.00;;;;;;1800485;78;21136;-73
2021/04/08 09:15:30;;;;;;;5.00;2.22;;;11.50;30.60;;;;;;1805287;78;21089;-74
2021/04/08 09:18:01;;;;;;;4.30;2.00;;;11.20;31.10;;;;;;1800605;78;21552;-74
2021/04/08 09:20:32;;;;;;;4.95;1.98;;;10.90;31.70;;;;;;1795986;80;21129;-72
2021/04/08 09:23:13;;;;;;;6.60;2.00;;;10.10;32.20;;;;;;1799623;78;21626;-71
2021/04/08 09:25:52;;;;;;;3.92;2.20;;;9.90;33.00;;;;;;1800528;78;21117;-70
2021/04/08 09:28:21;;;;;;;7.25;2.15;;;9.70;34.20;;;;;;1808185;78;21136;-72
2021/04/08 09:31:07;;;;;;;5.90;2.02;;;9.40;34.20;;;;;;1800831;78;21129;-71
2021/04/08 09:33:53;;;;;;;5.83;1.75;;;9.30;35.60;;;;;;1797605;78;21150;-71
2021/04/08 09:36:24;;;;;;;3.62;1.30;;;9.20;34.30;;;;;;1802027;78;21098;-76
2021/04/08 09:39:00;;;;;;;4.50;1.32;;;9.30;30.50;;;;;;1796123;79;21412;-79
2021/04/08 09:41:55;;;;;;;3.30;1.77;;;9.40;31.30;;;;;;1795966;80;21540;-74
2021/04/08 09:44:24;;;;;;;3.12;1.65;;;9.50;34.00;;;;;;1800554;78;21137;-71
2021/04/08 09:47:00;;;;;;;6.05;1.60;;;9.10;32.40;;;;;;1800331;78;21129;-74
2021/04/08 09:49:42;;;;;;;2.83;1.55;;;9.00;30.00;;;;;;1805227;78;21157;-71
2021/04/08 09:52:13;;;;;;;3.10;1.32;;;8.90;30.70;;;;;;1803819;78;21109;-71
2021/04/08 09:54:57;;;;;;;2.80;1.57;;;9.00;32.00;;;;;;1805082;78;21180;-72
2021/04/08 09:57:38;;;;;;;3.87;2.08;;;9.20;32.40;;;;;;1786365;80;21113;-72
2021/04/08 10:00:12;;;;;;;10.38;1.67;;;9.20;32.00;;;;;;1792595;80;21583;-74
2021/04/08 10:03:07;;;;;;;2.08;1.35;;;9.20;31.40;;;;;;1784354;78;21105;-73
2021/04/08 10:05:38;;;;;;;3.33;1.30;;;8.90;30.90;;;;;;1805092;78;21271;-73
2021/04/08 10:08:12;;;;;;;2.62;1.70;;;9.20;31.70;;;;;;1804868;78;21124;-72
2021/04/08 10:10:44;;;;;;;3.47;1.55;;;9.20;30.10;;;;;;1796004;79;21157;-73
2021/04/08 10:13:27;;;;;;;5.80;1.20;;;9.20;30.60;;;;;;1794787;78;21133;-73
2021/04/08 10:16:14;;;;;;;3.58;1.55;;;9.30;30.10;;;;;;1795381;78;21153;-73
2021/04/08 10:18:44;;;;;;;4.03;1.30;;;9.30;30.20;;;;;;1803530;78;21575;-73
2021/04/08 10:21:17;;;;;;;3.67;1.50;;;9.40;31.10;;;;;;1794978;78;21109;-75
2021/04/08 10:23:50;;;;;;;5.75;1.82;;;9.40;30.70;;;;;;1737857;82;21110;-73
2021/04/08 10:26:31;;;;;;;3.90;1.82;;;9.50;31.40;;;;;;1803472;79;21144;-73
2021/04/08 10:29:03;;;;;;;3.90;1.85;;;9.10;31.60;;;;;;1797246;79;21153;-75
2021/04/08 10:31:44;;;;;;;3.27;1.62;;;9.30;31.70;;;;;;1790968;78;21542;-74
2021/04/08 10:34:18;;;;;;;4.55;1.87;;;9.40;33.00;;;;;;1714827;84;21175;-76
2021/04/08 10:36:55;;;;;;;3.00;1.90;;;9.50;34.20;;;;;;1715359;84;21266;-75
2021/04/08 10:39:28;;;;;;;2.70;1.60;;;9.70;34.40;;;;;;1715312;83;21294;-74
2021/04/08 10:42:12;;;;;;;2.42;1.47;;;9.50;33.20;;;;;;1715058;83;21291;-73
2021/04/08 10:44:46;;;;;;;3.22;1.60;;;9.40;32.20;;;;;;1715097;84;21305;-73
2021/04/08 10:47:24;;;;;;;3.35;1.70;;;9.30;32.90;;;;;;1733906;82;21595;-72
2021/04/08 10:49:59;;;;;;;5.28;1.80;;;9.40;33.70;;;;;;1747976;82;21164;-70
2021/04/08 10:52:36;;;;;;;5.20;1.80;;;9.40;33.90;;;;;;1747947;82;21199;-74
2021/04/08 10:55:11;;;;;;;4.00;1.90;;;9.30;34.60;;;;;;1748028;82;21187;-73
2021/04/08 10:57:41;;;;;;;2.60;1.60;;;9.50;34.50;;;;;;1717707;82;21159;-74
2021/04/08 11:00:13;;;;;;;2.92;1.90;;;9.60;34.40;;;;;;1714707;82;21155;-74
2021/04/08 11:02:43;;;;;;;5.72;2.33;;;9.50;34.40;;;;;;1711712;84;21182;-75
2021/04/08 11:05:25;;;;;;;3.27;1.60;;;9.40;34.10;;;;;;1715101;84;21147;-74
2021/04/08 11:07:58;;;;;;;2.73;1.73;;;9.50;35.00;;;;;;1715137;84;21164;-74
2021/04/08 11:10:29;;;;;;;4.12;1.57;;;9.50;34.50;;;;;;1715272;83;21306;-75
2021/04/08 11:12:59;;;;;;;4.28;1.77;;;9.60;34.20;;;;;;1715692;83;21160;-74
2021/04/08 11:15:48;;;;;;;4.22;1.92;;;9.70;34.80;;;;;;1715271;84;21227;-73
2021/04/08 11:18:21;;;;;;;6.37;2.17;;;9.60;34.70;;;;;;1697904;84;21345;-72
2021/04/08 11:20:52;;;;;;;3.15;2.00;;;9.50;34.00;;;;;;1698016;84;21293;-72
2021/04/08 11:23:25;;;;;;;4.45;1.70;;;9.50;34.80;;;;;;1698182;84;21566;-73
2021/04/08 11:26:07;;;;;;;3.45;1.67;;;9.60;34.50;;;;;;1696591;84;21147;-72
2021/04/08 11:28:42;;;;;;;4.15;2.25;;;9.40;33.70;;;;;;1670132;86;21158;-73
2021/04/08 11:31:14;;;;;;;4.08;2.20;;;9.20;35.80;;;;;;1670336;86;21142;-72
2021/04/08 11:33:42;;;;;;;3.80;2.10;;;9.20;37.20;;;;;;1679763;84;21185;-74
2021/04/08 11:36:20;;;;;;;6.15;2.12;;;9.20;38.50;;;;;;1691190;85;21567;-75
2021/04/08 11:38:49;;;;;;;5.22;2.77;;;9.30;39.60;;;;;;1695806;84;21159;-74
2021/04/08 11:41:17;;;;;;;4.30;2.42;;;9.30;39.80;;;;;;1695461;85;21178;-74
2021/04/08 11:43:51;;;;;;;4.28;2.30;;;9.40;39.40;;;;;;1695577;85;21176;-75
2021/04/08 11:46:37;;;;;;;5.70;2.25;;;9.30;40.00;;;;;;1696299;84;21103;-74
2021/04/08 11:49:19;;;;;;;3.30;1.95;;;9.30;39.80;;;;;;1698221;84;21127;-75
2021/04/08 11:51:50;;;;;;;3.37;1.90;;;9.20;38.50;;;;;;1698447;84;21146;-75
2021/04/08 11:54:20;;;;;;;5.85;2.00;;;9.00;37.40;;;;;;1697731;84;21316;-74
2021/04/08 11:56:50;;;;;;;3.22;2.00;;;9.10;37.80;;;;;;1698292;84;21598;-75
2021/04/08 11:59:22;;;;;;;5.08;1.80;;;9.00;37.40;;;;;;1698087;84;21283;-75
2021/04/08 12:01:54;;;;;;;4.03;2.05;;;8.80;38.20;;;;;;1697170;84;21100;-74
2021/04/08 12:04:28;;;;;;;4.83;2.17;;;8.90;38.60;;;;;;1696234;84;21203;-75
2021/04/08 12:07:07;;;;;;;3.35;1.92;;;8.80;37.60;;;;;;1694028;84;21241;-77
2021/04/08 12:09:42;;;;;;;6.92;1.75;;;8.40;38.00;;;;;;1693456;84;21138;-74
2021/04/08 12:12:11;;;;;;;2.80;1.70;;;8.60;38.90;;;;;;1696645;83;21146;-75
2021/04/08 12:15:04;;;;;;;3.87;2.00;;;8.60;39.30;;;;;;1696831;84;21169;-74
2021/04/08 12:17:33;;;;;;;3.98;1.70;;;8.70;39.00;;;;;;1687595;84;21139;-73
2021/04/08 12:20:20;;;;;;;4.08;2.15;;;8.70;38.70;;;;;;1688384;85;21130;-72
2021/04/08 12:22:48;;;;;;;2.45;1.52;;;8.80;38.30;;;;;;1686912;85;21175;-72
2021/04/08 12:25:20;;;;;;;4.70;1.90;;;8.70;37.60;;;;;;1688136;85;21134;-73
2021/04/08 12:27:52;;;;;;;4.95;1.85;;;8.60;38.10;;;;;;1688434;85;21111;-71
2021/04/08 12:30:20;;;;;;;3.22;2.20;;;8.60;39.20;;;;;;1684855;85;21124;-71
2021/04/08 12:32:51;;;;;;;4.35;2.02;;;8.70;39.50;;;;;;1689207;85;21154;-72
2021/04/08 12:35:20;;;;;;;3.05;2.00;;;8.70;39.90;;;;;;1688713;85;21145;-69
2021/04/08 12:37:50;;;;;;;4.25;2.22;;;8.60;41.10;;;;;;1687068;85;21177;-71
2021/04/08 12:40:18;;;;;;;4.00;2.30;;;8.50;41.20;;;;;;1689281;85;21131;-72
2021/04/08 12:42:46;;;;;;;3.35;1.95;;;8.70;41.70;;;;;;1691222;85;21578;-71
2021/04/08 12:45:14;;;;;;;3.65;2.00;;;8.80;41.60;;;;;;1690817;85;21112;-71
2021/04/08 12:47:42;;;;;;;5.20;2.20;;;9.00;41.80;;;;;;1690547;85;21159;-69
2021/04/08 12:50:13;;;;;;;3.95;1.87;;;9.00;41.50;;;;;;1688440;85;21197;-71
2021/04/08 12:52:41;;;;;;;5.25;2.40;;;9.00;40.80;;;;;;1688077;85;21162;-71
2021/04/08 12:55:10;;;;;;;3.60;2.12;;;9.00;41.10;;;;;;1687908;85;21125;-70
2021/04/08 12:57:38;;;;;;;3.85;2.45;;;9.00;41.90;;;;;;1684706;85;21142;-68
2021/04/08 13:00:08;;;;;;;5.00;2.60;;;8.90;42.60;;;;;;1688220;85;21149;-69
2021/04/08 13:02:37;;;;;;;3.85;2.05;;;8.90;43.00;;;;;;1688249;85;21561;-69
2021/04/08 13:05:07;;;;;;;7.05;2.72;;;9.10;43.30;;;;;;1688289;85;21605;-71
2021/04/08 13:07:35;;;;;;;6.45;2.40;;;9.10;42.90;;;;;;1687769;85;21617;-71
2021/04/08 13:10:03;;;;;;;4.90;2.40;;;9.10;43.40;;;;;;1688225;85;21144;-70
2021/04/08 13:12:31;;;;;;;6.00;2.65;;;9.10;43.40;;;;;;1688517;85;21146;-69
2021/04/08 13:14:59;;;;;;;4.08;2.50;;;9.10;44.00;;;;;;1688258;85;21589;-68
2021/04/08 13:17:27;;;;;;;7.67;2.50;;;9.10;44.30;;;;;;1687812;85;21269;-69
2021/04/08 13:19:54;;;;;;;5.90;2.52;;;9.00;45.20;;;;;;1688581;85;21128;-69
2021/04/08 13:22:23;;;;;;;6.75;2.80;;;9.00;45.60;;;;;;1687625;85;21131;-70